createdAt,value
2022-12-14T00:01:48.969Z,13.60
2022-12-14T00:04:17.635Z,16.63
2022-12-14T00:06:46.951Z,19.60
2022-12-14T00:09:14.826Z,17.60
2022-12-14T00:11:42.591Z,17.13
2022-12-14T00:14:10.397Z,16.53
2022-12-14T00:16:38.362Z,20.13
2022-12-14T00:19:06.329Z,14.43
2022-12-14T00:21:34.107Z,16.03
2022-12-14T00:24:03.730Z,15.40
2022-12-14T00:26:32.878Z,17.43
2022-12-14T00:29:02.417Z,13.83
2022-12-14T00:31:31.868Z,19.40
2022-12-14T00:34:01.100Z,14.47
2022-12-14T00:36:31.436Z,15.27
2022-12-14T00:38:59.937Z,18.70
2022-12-14T00:41:29.263Z,13.23
2022-12-14T00:43:57.256Z,13.23
2022-12-14T00:46:25.165Z,16.73
2022-12-14T00:48:53.228Z,22.37
2022-12-14T00:51:21.025Z,15.93
2022-12-14T00:53:48.801Z,15.70
2022-12-14T00:56:16.696Z,16.50
2022-12-14T00:58:51.492Z,16.03
2022-12-14T01:01:19.625Z,14.60
2022-12-14T01:03:47.698Z,14.63
2022-12-14T01:06:16.989Z,16.87
2022-12-14T01:08:44.857Z,16.50
2022-12-14T01:11:13.529Z,15.80
2022-12-14T01:13:42.228Z,18.90
2022-12-14T01:16:13.742Z,12.73
2022-12-14T01:18:43.349Z,16.40
2022-12-14T01:21:13.744Z,18.00
2022-12-14T01:23:41.983Z,14.93
2022-12-14T01:26:09.911Z,16.87
2022-12-14T01:28:37.901Z,11.73
2022-12-14T01:31:08.091Z,13.63
2022-12-14T01:33:37.533Z,18.03
2022-12-14T01:36:07.381Z,14.33
2022-12-14T01:38:35.493Z,20.03
2022-12-14T01:41:03.613Z,17.60
2022-12-14T01:43:46.969Z,14.40
2022-12-14T01:46:21.300Z,16.77
2022-12-14T01:48:54.273Z,14.27
2022-12-14T01:51:22.191Z,18.13
2022-12-14T01:53:50.231Z,15.30
2022-12-14T01:56:18.765Z,14.20
2022-12-14T01:58:46.580Z,16.30
2022-12-14T02:01:14.861Z,15.73
2022-12-14T02:03:47.228Z,18.07
2022-12-14T02:06:20.947Z,16.70
2022-12-14T02:08:52.037Z,14.70
2022-12-14T02:11:27.579Z,16.63
2022-12-14T02:13:55.375Z,17.47
2022-12-14T02:16:23.241Z,18.70
2022-12-14T02:18:51.069Z,17.77
2022-12-14T02:21:24.956Z,15.80
2022-12-14T02:24:34.325Z,18.67
2022-12-14T02:27:22.450Z,20.37
2022-12-14T02:30:04.976Z,14.50
2022-12-14T02:32:48.700Z,13.10
2022-12-14T02:35:22.587Z,15.73
2022-12-14T02:37:58.262Z,14.97
2022-12-14T02:40:34.308Z,12.03
2022-12-14T02:43:11.686Z,15.80
2022-12-14T02:45:45.981Z,14.97
2022-12-14T02:48:19.416Z,15.50
2022-12-14T02:50:54.907Z,14.77
2022-12-14T02:53:30.165Z,14.67
2022-12-14T02:56:02.796Z,14.37
2022-12-14T02:58:36.036Z,15.47
2022-12-14T03:01:06.152Z,13.60
2022-12-14T03:03:34.002Z,17.70
2022-12-14T03:06:04.994Z,15.73
2022-12-14T03:08:35.174Z,15.30
2022-12-14T03:11:06.007Z,16.70
2022-12-14T03:13:37.630Z,20.00
2022-12-14T03:16:15.413Z,15.67
2022-12-14T03:18:50.926Z,14.77
2022-12-14T03:21:25.033Z,16.70
2022-12-14T03:23:53.802Z,18.10
2022-12-14T03:26:26.985Z,14.70
2022-12-14T03:28:58.444Z,14.77
2022-12-14T03:31:33.255Z,14.87
2022-12-14T03:34:03.991Z,18.20
2022-12-14T03:36:43.618Z,12.53
2022-12-14T03:39:16.111Z,18.17
2022-12-14T03:41:51.131Z,18.03
2022-12-14T03:44:33.091Z,14.93
2022-12-14T03:47:14.934Z,14.87
2022-12-14T03:49:56.177Z,16.27
2022-12-14T03:52:28.622Z,13.87
2022-12-14T03:55:06.236Z,14.53
2022-12-14T03:57:49.654Z,15.40
2022-12-14T04:00:21.418Z,17.60
2022-12-14T04:02:59.342Z,13.43
2022-12-14T04:05:33.244Z,14.32
2022-12-14T04:08:08.582Z,13.82
2022-12-14T04:11:00.203Z,14.03
2022-12-14T04:13:51.550Z,14.47
2022-12-14T04:16:44.909Z,14.50
2022-12-14T04:19:21.424Z,12.47
2022-12-14T04:21:53.204Z,15.10
2022-12-14T04:24:44.169Z,14.70
2022-12-14T04:27:17.676Z,15.60
2022-12-14T04:29:56.564Z,13.77
2022-12-14T04:32:28.583Z,12.55
2022-12-14T04:35:02.097Z,16.57
2022-12-14T04:37:31.547Z,14.68
2022-12-14T04:40:05.298Z,13.63
2022-12-14T04:42:36.748Z,12.00
2022-12-14T04:45:10.363Z,15.67
2022-12-14T04:47:45.479Z,13.73
2022-12-14T04:50:20.795Z,13.80
2022-12-14T04:52:52.722Z,15.50
2022-12-14T04:55:27.821Z,14.20
2022-12-14T04:58:00.049Z,14.87
2022-12-14T05:00:28.410Z,16.50
2022-12-14T05:03:15.605Z,14.73
2022-12-14T05:05:53.329Z,17.85
2022-12-14T05:08:30.028Z,16.83
2022-12-14T05:11:30.134Z,15.67
2022-12-14T05:13:52.245Z,12.63
2022-12-14T05:16:22.831Z,13.97
2022-12-14T05:18:51.420Z,16.23
2022-12-14T05:21:38.251Z,14.60
2022-12-14T05:24:07.009Z,18.23
2022-12-14T05:26:35.321Z,12.30
2022-12-14T05:29:03.118Z,14.77
2022-12-14T05:31:31.115Z,13.23
2022-12-14T05:33:58.931Z,14.70
2022-12-14T05:36:28.361Z,18.63
2022-12-14T05:38:56.335Z,12.13
2022-12-14T05:41:24.189Z,12.18
2022-12-14T05:43:52.290Z,13.50
2022-12-14T05:46:20.115Z,12.60
2022-12-14T05:48:49.517Z,12.40
2022-12-14T05:51:17.969Z,15.13
2022-12-14T05:53:47.166Z,12.70
2022-12-14T05:56:15.112Z,13.60
2022-12-14T05:58:42.890Z,12.00
2022-12-14T06:01:18.503Z,16.77
2022-12-14T06:03:47.430Z,15.30
2022-12-14T06:06:15.816Z,13.90
2022-12-14T06:08:45.349Z,14.00
2022-12-14T06:11:16.410Z,13.07
2022-12-14T06:13:44.828Z,15.00
2022-12-14T06:16:14.258Z,16.53
2022-12-14T06:18:43.909Z,14.73
2022-12-14T06:21:12.352Z,19.48
2022-12-14T06:23:40.188Z,12.55
2022-12-14T06:26:08.064Z,14.10
2022-12-14T06:28:37.673Z,20.50
2022-12-14T06:31:06.045Z,16.58
2022-12-14T06:33:35.007Z,17.38
2022-12-14T06:36:03.695Z,13.87
2022-12-14T06:38:31.610Z,13.17
2022-12-14T06:40:59.461Z,15.02
2022-12-14T06:43:28.040Z,15.07
2022-12-14T06:45:57.463Z,13.35
2022-12-14T06:48:25.307Z,13.00
2022-12-14T06:50:53.110Z,14.80
2022-12-14T06:53:20.944Z,17.67
2022-12-14T06:55:49.384Z,18.25
2022-12-14T06:58:17.298Z,14.02
2022-12-14T07:00:45.173Z,10.77
2022-12-14T07:03:14.381Z,14.13
2022-12-14T07:05:47.306Z,17.52
2022-12-14T07:08:16.825Z,13.93
2022-12-14T07:10:44.667Z,11.05
2022-12-14T07:13:12.436Z,14.20
2022-12-14T07:15:40.573Z,12.13
2022-12-14T07:18:08.682Z,13.85
2022-12-14T07:20:37.923Z,15.75
2022-12-14T07:23:05.697Z,11.35
2022-12-14T07:25:33.492Z,17.55
2022-12-14T07:28:01.319Z,13.47
2022-12-14T07:30:29.181Z,13.60
2022-12-14T07:32:56.991Z,14.73
2022-12-14T07:35:25.620Z,12.68
2022-12-14T07:37:54.741Z,12.97
2022-12-14T07:40:22.567Z,11.40
2022-12-14T07:42:50.537Z,13.73
2022-12-14T07:45:18.371Z,12.57
2022-12-14T07:47:46.288Z,17.70
2022-12-14T07:50:14.084Z,10.03
2022-12-14T07:52:41.857Z,12.80
2022-12-14T07:55:11.385Z,13.10
2022-12-14T07:57:39.175Z,12.23
2022-12-14T08:00:08.064Z,16.87
2022-12-14T08:02:35.996Z,16.20
2022-12-14T08:05:07.894Z,11.73
2022-12-14T08:07:40.041Z,14.40
2022-12-14T08:10:08.750Z,11.02
2022-12-14T08:12:37.917Z,14.93
2022-12-14T08:15:06.733Z,13.07
2022-12-14T08:17:34.531Z,12.57
2022-12-14T08:20:02.356Z,17.77
2022-12-14T08:22:30.115Z,13.30
2022-12-14T08:24:58.022Z,18.63
2022-12-14T08:27:26.017Z,10.43
2022-12-14T08:29:55.174Z,10.47
2022-12-14T08:32:23.112Z,14.50
2022-12-14T08:34:50.921Z,13.43
2022-12-14T08:37:18.721Z,11.57
2022-12-14T08:39:47.708Z,13.87
2022-12-14T08:42:18.021Z,10.97
2022-12-14T08:44:45.820Z,12.60
2022-12-14T08:47:18.703Z,12.10
2022-12-14T08:49:46.568Z,15.57
2022-12-14T08:52:14.398Z,12.90
2022-12-14T08:54:42.187Z,14.27
2022-12-14T08:57:10.002Z,17.97
2022-12-14T09:00:00.881Z,12.60
2022-12-14T09:02:27.563Z,14.07
2022-12-14T09:04:55.584Z,13.87
2022-12-14T09:07:23.368Z,14.20
2022-12-14T09:09:51.138Z,14.47
2022-12-14T09:12:19.014Z,15.23
2022-12-14T09:14:49.156Z,17.23
2022-12-14T09:17:17.405Z,13.97
2022-12-14T09:19:46.657Z,16.93
2022-12-14T09:22:14.592Z,15.40
2022-12-14T09:24:42.523Z,17.77
2022-12-14T09:27:10.485Z,12.80
2022-12-14T09:29:38.345Z,13.57
2022-12-14T09:32:06.601Z,14.83
2022-12-14T09:34:34.488Z,22.17
2022-12-14T09:37:04.780Z,14.17
2022-12-14T09:39:32.854Z,17.37
2022-12-14T09:42:17.023Z,20.40
2022-12-14T09:44:53.544Z,16.30
2022-12-14T09:47:26.880Z,18.70
2022-12-14T09:49:56.631Z,20.53
2022-12-14T09:52:34.895Z,20.83
2022-12-14T09:55:07.006Z,18.40
2022-12-14T09:57:38.959Z,17.77
2022-12-14T10:00:14.429Z,22.30
2022-12-14T10:03:01.522Z,18.40
2022-12-14T10:05:45.716Z,22.43
2022-12-14T10:08:22.070Z,24.00
2022-12-14T10:11:02.722Z,21.40
2022-12-14T10:13:42.050Z,20.60
2022-12-14T10:16:20.404Z,21.53
2022-12-14T10:19:02.729Z,18.53
2022-12-14T10:21:49.691Z,17.93
2022-12-14T10:24:23.983Z,18.70
2022-12-14T10:26:54.114Z,18.97
2022-12-14T10:29:37.192Z,20.07
2022-12-14T10:32:16.398Z,20.57
2022-12-14T10:34:44.560Z,14.93
2022-12-14T10:37:26.536Z,16.47
2022-12-14T10:40:26.234Z,17.83
2022-12-14T10:43:23.073Z,16.47
2022-12-14T10:46:00.900Z,19.13
2022-12-14T10:48:45.129Z,16.37
2022-12-14T10:51:18.061Z,14.97
2022-12-14T10:53:51.363Z,19.33
2022-12-14T10:56:25.265Z,17.87
2022-12-14T10:59:36.999Z,15.63
2022-12-14T11:02:10.211Z,18.37
2022-12-14T11:04:43.435Z,17.13
2022-12-14T11:07:12.859Z,15.30
2022-12-14T11:09:41.584Z,17.13
2022-12-14T11:12:21.441Z,16.13
2022-12-14T11:14:56.287Z,16.60
2022-12-14T11:17:35.751Z,18.50
2022-12-14T11:20:16.413Z,16.83
2022-12-14T11:22:46.156Z,19.57
2022-12-14T11:25:34.881Z,18.90
2022-12-14T11:28:16.566Z,22.80
2022-12-14T11:30:54.528Z,15.93
2022-12-14T11:33:22.921Z,17.57
2022-12-14T11:35:52.327Z,17.97
2022-12-14T11:38:20.615Z,15.63
2022-12-14T11:40:48.488Z,20.77
2022-12-14T11:43:26.113Z,21.90
2022-12-14T11:45:56.002Z,22.03
2022-12-14T11:48:25.596Z,16.73
2022-12-14T11:50:55.327Z,20.80
2022-12-14T11:53:24.412Z,16.10
2022-12-14T11:55:56.960Z,20.00
2022-12-14T11:58:29.973Z,19.13
2022-12-14T12:01:00.490Z,16.60
2022-12-14T12:03:34.355Z,19.00
2022-12-14T12:06:06.285Z,20.20
2022-12-14T12:08:39.078Z,19.77
2022-12-14T12:11:16.523Z,25.70
2022-12-14T12:13:48.314Z,19.93
2022-12-14T12:16:18.367Z,19.17
2022-12-14T12:18:49.509Z,17.67
2022-12-14T12:21:20.784Z,19.10
2022-12-14T12:23:54.115Z,23.20
2022-12-14T12:26:25.623Z,17.83
2022-12-14T12:29:01.160Z,19.53
2022-12-14T12:31:35.246Z,20.17
2022-12-14T12:34:10.016Z,20.70
2022-12-14T12:36:51.578Z,20.67
2022-12-14T12:39:26.829Z,22.40
2022-12-14T12:42:05.617Z,18.00
2022-12-14T12:44:49.881Z,20.70
2022-12-14T12:47:29.041Z,20.67
2022-12-14T12:50:06.377Z,20.20
2022-12-14T12:52:42.163Z,22.23
2022-12-14T12:55:15.915Z,25.37
2022-12-14T12:57:47.375Z,21.53
2022-12-14T13:00:19.863Z,20.10
2022-12-14T13:02:51.663Z,20.40
2022-12-14T13:05:45.895Z,22.83
2022-12-14T13:08:17.267Z,21.80
2022-12-14T13:11:17.367Z,22.00
2022-12-14T13:13:37.767Z,23.40
2022-12-14T13:16:14.403Z,22.60
2022-12-14T13:19:04.468Z,24.20
2022-12-14T13:21:40.095Z,20.27
2022-12-14T13:24:16.533Z,21.63
2022-12-14T13:27:19.788Z,23.80
2022-12-14T13:29:58.180Z,22.57
2022-12-14T13:32:43.130Z,21.40
2022-12-14T13:35:24.153Z,21.27
2022-12-14T13:38:18.262Z,20.10
2022-12-14T13:41:11.531Z,19.63
2022-12-14T13:43:56.949Z,24.07
2022-12-14T13:46:27.076Z,20.63
2022-12-14T13:49:00.708Z,21.40
2022-12-14T13:51:30.872Z,28.53
2022-12-14T13:54:00.095Z,22.70
2022-12-14T13:56:33.533Z,19.27
2022-12-14T13:59:05.443Z,21.93
2022-12-14T14:01:54.191Z,24.90
2022-12-14T14:04:25.989Z,24.20
2022-12-14T14:06:56.572Z,26.00
2022-12-14T14:09:57.949Z,24.80
2022-12-14T14:12:44.348Z,24.03
2022-12-14T14:16:19.013Z,22.20
2022-12-14T14:18:38.111Z,24.47
2022-12-14T14:21:58.800Z,22.33
2022-12-14T14:24:28.009Z,23.00
2022-12-14T14:27:01.077Z,23.77
2022-12-14T14:29:30.906Z,23.03
2022-12-14T14:32:01.502Z,22.63
2022-12-14T14:34:46.178Z,24.67
2022-12-14T14:37:28.214Z,26.00
2022-12-14T14:40:16.613Z,22.70
2022-12-14T14:42:52.885Z,21.50
2022-12-14T14:45:30.134Z,24.37
2022-12-14T14:48:00.362Z,24.30
2022-12-14T14:50:32.240Z,21.07
2022-12-14T14:53:13.261Z,20.23
2022-12-14T14:56:03.963Z,22.23
2022-12-14T14:58:35.187Z,21.73
2022-12-14T15:01:20.860Z,23.37
2022-12-14T15:03:57.236Z,25.47
2022-12-14T15:06:29.234Z,23.97
2022-12-14T15:09:06.283Z,24.57
2022-12-14T15:11:42.752Z,25.00
2022-12-14T15:14:30.162Z,23.30
2022-12-14T15:16:58.007Z,22.30
2022-12-14T15:19:30.170Z,25.07
2022-12-14T15:22:00.866Z,23.50
2022-12-14T15:24:34.111Z,23.70
2022-12-14T15:27:10.456Z,21.90
2022-12-14T15:29:38.323Z,26.03
2022-12-14T15:32:06.602Z,22.13
2022-12-14T15:34:34.459Z,19.90
2022-12-14T15:37:02.354Z,23.83
2022-12-14T15:39:39.731Z,35.23
2022-12-14T15:42:13.282Z,22.43
2022-12-14T15:44:50.159Z,26.00
2022-12-14T15:47:26.343Z,22.27
2022-12-14T15:49:59.751Z,27.53
2022-12-14T15:52:31.253Z,21.83
2022-12-14T15:55:01.244Z,22.87
2022-12-14T15:57:29.505Z,30.27
2022-12-14T15:59:59.216Z,25.77
2022-12-14T16:02:30.613Z,31.77
2022-12-14T16:05:01.420Z,24.63
2022-12-14T16:07:34.360Z,27.60
2022-12-14T16:10:07.194Z,27.20
2022-12-14T16:12:45.197Z,28.60
2022-12-14T16:15:19.664Z,23.07
2022-12-14T16:17:48.006Z,21.80
2022-12-14T16:20:22.278Z,21.43
2022-12-14T16:23:02.777Z,22.53
2022-12-14T16:25:33.358Z,21.03
2022-12-14T16:28:20.912Z,22.00
2022-12-14T16:30:57.657Z,25.77
2022-12-14T16:33:26.272Z,24.40
2022-12-14T16:36:03.325Z,28.47
2022-12-14T16:38:32.108Z,24.67
2022-12-14T16:41:03.409Z,23.83
2022-12-14T16:43:35.253Z,24.23
2022-12-14T16:46:21.102Z,27.10
2022-12-14T16:49:21.154Z,25.30
2022-12-14T16:52:07.217Z,21.00
2022-12-14T16:54:36.617Z,22.27
2022-12-14T16:57:08.577Z,25.53
2022-12-14T16:59:42.086Z,27.23
2022-12-14T17:02:32.871Z,20.63
2022-12-14T17:05:03.582Z,28.20
2022-12-14T17:07:34.080Z,22.40
2022-12-14T17:10:02.024Z,28.47
2022-12-14T17:12:31.264Z,21.07
2022-12-14T17:14:59.869Z,20.53
2022-12-14T17:17:33.165Z,27.70
2022-12-14T17:20:01.542Z,23.15
2022-12-14T17:22:31.362Z,23.37
2022-12-14T17:25:01.020Z,20.23
2022-12-14T17:27:29.110Z,23.33
2022-12-14T17:29:58.295Z,23.67
2022-12-14T17:32:30.492Z,18.97
2022-12-14T17:34:58.744Z,21.17
2022-12-14T17:37:32.411Z,22.87
2022-12-14T17:40:02.106Z,22.33
2022-12-14T17:42:29.922Z,28.63
2022-12-14T17:45:00.820Z,23.60
2022-12-14T17:47:28.652Z,23.80
2022-12-14T17:49:56.533Z,18.17
2022-12-14T17:52:29.008Z,22.87
2022-12-14T17:54:57.805Z,22.03
2022-12-14T17:57:26.499Z,21.37
2022-12-14T18:00:15.060Z,21.43
2022-12-14T18:02:45.697Z,23.87
2022-12-14T18:05:19.649Z,26.40
2022-12-14T18:07:49.540Z,21.77
2022-12-14T18:10:18.429Z,27.63
2022-12-14T18:12:46.392Z,23.57
2022-12-14T18:15:19.293Z,25.20
2022-12-14T18:17:49.463Z,23.37
2022-12-14T18:20:17.571Z,29.60
2022-12-14T18:22:49.606Z,24.03
2022-12-14T18:25:32.292Z,23.40
2022-12-14T18:28:01.048Z,22.60
2022-12-14T18:30:34.937Z,23.97
2022-12-14T18:33:07.962Z,27.43
2022-12-14T18:35:37.058Z,25.52
2022-12-14T18:38:04.848Z,25.83
2022-12-14T18:40:32.707Z,28.73
2022-12-14T18:43:00.517Z,35.93
2022-12-14T18:45:30.639Z,22.63
2022-12-14T18:47:59.094Z,29.00
2022-12-14T18:50:29.481Z,28.27
2022-12-14T18:52:57.597Z,27.08
2022-12-14T18:55:27.378Z,24.15
2022-12-14T18:57:57.498Z,28.10
2022-12-14T19:00:27.379Z,30.87
2022-12-14T19:02:58.916Z,28.03
2022-12-14T19:05:28.405Z,26.73
2022-12-14T19:07:58.700Z,26.20
2022-12-14T19:10:30.194Z,27.73
2022-12-14T19:12:58.981Z,31.37
2022-12-14T19:15:28.677Z,33.90
2022-12-14T19:17:56.891Z,30.92
2022-12-14T19:20:26.060Z,27.10
2022-12-14T19:22:55.867Z,26.20
2022-12-14T19:25:24.679Z,30.67
2022-12-14T19:30:43.863Z,30.88
2022-12-14T19:33:11.684Z,33.58
2022-12-14T19:35:41.048Z,28.00
2022-12-14T19:38:13.858Z,30.88
2022-12-14T19:40:42.125Z,28.45
2022-12-14T19:43:09.933Z,27.13
2022-12-14T19:45:39.453Z,25.47
2022-12-14T19:48:12.725Z,31.40
2022-12-14T19:50:41.053Z,29.67
2022-12-14T19:53:10.230Z,35.33
2022-12-14T19:55:38.153Z,32.90
2022-12-14T19:58:06.042Z,33.13
2022-12-14T20:00:33.849Z,31.30
2022-12-14T20:03:01.818Z,26.45
2022-12-14T20:05:29.732Z,71.55
2022-12-14T20:07:57.530Z,34.50
2022-12-14T20:10:26.669Z,32.53
2022-12-14T20:12:54.469Z,26.17
2022-12-14T20:15:22.298Z,28.40
2022-12-14T20:17:50.097Z,31.02
2022-12-14T20:20:19.135Z,28.40
2022-12-14T20:22:47.038Z,29.53
2022-12-14T20:25:14.873Z,27.97
2022-12-14T20:27:44.061Z,24.70
2022-12-14T20:30:12.916Z,30.50
2022-12-14T20:32:41.133Z,24.80
2022-12-14T20:35:10.897Z,27.60
2022-12-14T20:37:38.916Z,25.85
2022-12-14T20:40:08.026Z,27.10
2022-12-14T20:42:35.838Z,26.80
2022-12-14T20:45:07.400Z,26.20
2022-12-14T20:47:35.591Z,27.60
2022-12-14T20:50:03.501Z,30.25
2022-12-14T20:52:31.269Z,29.25
2022-12-14T20:54:59.109Z,21.85
2022-12-14T20:57:28.265Z,29.60
2022-12-14T20:59:59.128Z,22.77
2022-12-14T21:02:28.708Z,26.00
2022-12-14T21:04:56.667Z,25.50
2022-12-14T21:07:26.548Z,24.40
2022-12-14T21:09:54.539Z,23.75
2022-12-14T21:12:21.345Z,27.65
2022-12-14T21:14:52.897Z,24.83
2022-12-14T21:17:21.937Z,25.85
2022-12-14T21:19:51.532Z,35.25
2022-12-14T21:22:21.726Z,32.47
2022-12-14T21:25:06.607Z,33.78
2022-12-14T21:27:38.125Z,34.78
2022-12-14T21:30:08.315Z,31.50
2022-12-14T21:32:37.334Z,26.38
2022-12-14T21:35:07.490Z,25.30
2022-12-14T21:37:37.946Z,24.63
2022-12-14T21:40:07.077Z,24.52
2022-12-14T21:42:33.889Z,18.98
2022-12-14T21:45:02.506Z,21.02
2022-12-14T21:47:30.790Z,15.77
2022-12-14T21:49:59.029Z,19.15
2022-12-14T21:52:29.190Z,20.48
2022-12-14T21:54:58.842Z,20.17
2022-12-14T21:57:50.366Z,21.88
2022-12-14T22:00:18.980Z,20.58
2022-12-14T22:02:46.919Z,17.33
2022-12-14T22:05:14.831Z,19.65
2022-12-14T22:07:43.989Z,20.67
2022-12-14T22:10:11.918Z,17.80
2022-12-14T22:12:39.731Z,18.00
2022-12-14T22:15:08.647Z,20.77
2022-12-14T22:17:36.436Z,18.42
2022-12-14T22:20:05.513Z,17.42
2022-12-14T22:22:33.491Z,21.88
2022-12-14T22:25:03.461Z,20.20
2022-12-14T22:27:31.757Z,18.92
2022-12-14T22:29:59.976Z,23.33
2022-12-14T22:32:28.230Z,20.20
2022-12-14T22:34:56.518Z,20.45
2022-12-14T22:37:24.455Z,14.88
2022-12-14T22:39:52.296Z,19.13
2022-12-14T22:42:21.438Z,12.70
2022-12-14T22:44:49.999Z,14.70
2022-12-14T22:47:17.865Z,12.93
2022-12-14T22:49:45.914Z,15.90
2022-12-14T22:52:13.799Z,16.90
2022-12-14T22:54:42.045Z,14.48
2022-12-14T22:57:14.817Z,13.13
2022-12-14T22:59:48.854Z,18.60
2022-12-14T23:02:16.941Z,14.17
2022-12-14T23:04:44.886Z,19.30
2022-12-14T23:07:12.786Z,13.77
2022-12-14T23:09:58.270Z,17.83
2022-12-14T23:12:43.872Z,12.17
2022-12-14T23:15:30.625Z,15.23
2022-12-14T23:18:19.729Z,14.18
2022-12-14T23:21:05.143Z,13.27
2022-12-14T23:23:50.558Z,13.50
2022-12-14T23:26:36.061Z,17.77
2022-12-14T23:29:21.513Z,14.15
2022-12-14T23:32:08.140Z,12.20
2022-12-14T23:34:53.722Z,14.57
2022-12-14T23:37:39.158Z,13.15
2022-12-14T23:40:26.076Z,15.80
2022-12-14T23:43:11.721Z,10.70
2022-12-14T23:45:57.090Z,11.63
2022-12-14T23:48:43.938Z,14.90
2022-12-14T23:51:29.259Z,12.27
2022-12-14T23:54:14.720Z,11.82
2022-12-14T23:57:00.162Z,13.80
2022-12-14T23:59:49.457Z,12.23
